EDDHEDHI

Guest
Details From EDDH - Hamburg
To EDHI - Hamburg Finkenwerder
Flight Number -
Tags Generated
Created
Modified
Stats Distance 9 nm / 17 km
Max Altitude 0 ft / 0 m
Waypoints 2
Social Downloads 0
Likes 0
Share VATSIM

Download

Looking for another format? Having issues loading an existing format? Contact us
Advertisement - Login to hide

Notes

Generated

Route

EDDH EDHI

ID Type Via Altitude Latitude Longitude Leg Dist Tot Dist Heading (true) Name
O EDDH APT - 0 ft / 0 m 53.65441˚ 9.97521˚ - 0 nm - -
O EDHI APT - 0 ft / 0 m 53.52856˚ 9.82149˚ 9 nm 9 nm 216° / 216° -

Altitude Profile

Advertisement - Login to hide

EDDH

Details ICAO EDDH (HAM)
Name Hamburg
Region Germany - Civil
Timezone Europe/Berlin (UTC+1.0)
Stats Elevation 53 ft / 16 m (AMSL)
Location 53.633665° 9.985235°
Runways 2
Magnetic Variation 2.785° E

METAR

EDDH 121820Z 23010KT 9999 BKN006 02/01 Q1008 TEMPO SCT005

Decode

TAF

TAF EDDH 121700Z 1218/1324 25008KT 9999 SCT005 BKN025 TEMPO 1218/1302 3500 BR BKN004 TEMPO 1302/1305 3500 BR BKN007 BECMG 1309/1311 18012KT TEMPO 1309/1314 20015G25KT BECMG 1310/1313 OVC005 TEMPO 1313/1317 3000 -RASN OVC003 TEMPO 1322/1324 BKN010

Decode

Departure Runways

ID Width Length Bearing (true) Bearing (mag) Surface Threshold Offset Overrun Length
05 151 ft / 46 m 10,647 ft / 3,245 m 50.18° 47.40° Asphalt 978 ft / 298 m 194 ft / 59 m
15 151 ft / 46 m 12,013 ft / 3,662 m 152.89° 150.11° Asphalt 0 ft / 0 m 194 ft / 59 m
23 151 ft / 46 m 10,647 ft / 3,245 m 230.22° 227.44° Asphalt 509 ft / 155 m 240 ft / 73 m
33 151 ft / 46 m 12,013 ft / 3,662 m 332.91° 330.13° Asphalt 1,463 ft / 446 m 164 ft / 50 m

EDHI

Details ICAO EDHI (XFW)
Name Hamburg Finkenwerder
Region Germany - Civil
Timezone Europe/Berlin (UTC+1.0)
Stats Elevation 21 ft / 6 m (AMSL)
Location 53.535910° 9.837071°
Runways 1
Magnetic Variation 2.736° E

METAR

EDHI 121820Z 24008KT 9999 BKN007 01/01 Q1008

Decode

TAF

Not found

Destination Runways

ID Width Length Bearing (true) Bearing (mag) Surface Threshold Offset Overrun Length
05 148 ft / 45 m 8,628 ft / 2,630 m 51.57° 48.83° Asphalt 341 ft / 104 m 341 ft / 104 m
23 148 ft / 45 m 8,628 ft / 2,630 m 231.59° 228.85° Asphalt 2,474 ft / 754 m 328 ft / 100 m

Approach Navaids

Runway Type Ident Frequency Range Bearing (true) Bearing (mag) Slope Elevation
05 Localiser IHFE 110.70 MHz 18 nm / 33 km 51.50° 48.76° - 15 ft / 5 m (AMSL)
05 Glidescope IHFE 110.70 MHz 10 nm / 19 km 51.58° 48.85° 3.10° 21 ft / 6 m (AMSL)
23 Localiser HFW 108.50 MHz 18 nm / 33 km 231.80° 229.07° - 16 ft / 5 m (AMSL)
23 Glidescope HFW 108.50 MHz 10 nm / 19 km 231.58° 228.85° 3.00° 21 ft / 6 m (AMSL)
23 DME HFW 108.50 MHz 18 nm / 33 km - - - 51 ft / 16 m (AMSL)

Popular Alternatives